createdAt,value
2018-10-05T00:00:32.314Z,97740.70
2018-10-05T00:03:01.403Z,97739.66
2018-10-05T00:05:30.536Z,97730.30
2018-10-05T00:07:59.726Z,97733.52
2018-10-05T00:10:28.823Z,97732.17
2018-10-05T00:12:57.943Z,97729.09
2018-10-05T00:15:27.146Z,97723.95
2018-10-05T00:17:56.241Z,97716.24
2018-10-05T00:20:25.390Z,97714.54
2018-10-05T00:22:54.479Z,97713.54
2018-10-05T00:25:23.747Z,97710.10
2018-10-05T00:27:53.015Z,97714.33
2018-10-05T00:30:22.120Z,97720.99
2018-10-05T00:32:51.209Z,97724.25
2018-10-05T00:35:20.532Z,97721.72
2018-10-05T00:37:50.224Z,97721.72
2018-10-05T03:22:27.754Z,97645.34
2018-10-05T03:24:56.866Z,97642.34
2018-10-05T03:27:26.594Z,97637.30
2018-10-05T03:29:55.696Z,97636.81
2018-10-05T03:32:24.797Z,97627.02
2018-10-05T03:34:53.906Z,97624.02
2018-10-05T03:37:23.774Z,97624.36
2018-10-05T03:39:53.282Z,97624.27
2018-10-05T08:03:53.235Z,97616.05
2018-10-05T08:06:22.722Z,97618.04
2018-10-05T08:08:52.316Z,97617.48
2018-10-05T08:11:27.894Z,97627.46
2018-10-05T08:13:57.262Z,97616.75
2018-10-05T08:16:26.305Z,97618.28
2018-10-05T08:18:56.247Z,97615.20
2018-10-05T08:21:26.366Z,97611.27
2018-10-05T08:23:56.242Z,97619.20
2018-10-05T08:26:26.349Z,97616.06
2018-10-05T08:28:56.682Z,97611.54
2018-10-05T08:31:26.424Z,97612.18
2018-10-05T08:33:56.337Z,97618.31
2018-10-05T08:36:26.354Z,97615.89
2018-10-05T08:38:56.322Z,97611.80
2018-10-05T08:41:26.437Z,97608.54
2018-10-05T08:43:56.424Z,97597.70
2018-10-05T08:46:26.364Z,97589.37
2018-10-05T08:48:56.473Z,97583.49
2018-10-05T08:51:25.589Z,97592.96
2018-10-05T08:53:54.738Z,97587.64
2018-10-05T08:56:23.786Z,97582.34
2018-10-05T08:58:52.877Z,97586.33
2018-10-05T09:01:22.043Z,97583.92
2018-10-05T09:03:51.104Z,97581.50
2018-10-05T09:06:20.219Z,97576.95
2018-10-05T09:08:49.425Z,97583.91
2018-10-05T09:11:18.663Z,97573.07
2018-10-05T09:13:47.671Z,97575.81
2018-10-05T09:16:16.796Z,97569.98
2018-10-05T09:18:45.862Z,97563.67
2018-10-05T09:21:14.933Z,97564.64
2018-10-05T09:23:44.011Z,97565.99
2018-10-05T09:26:13.076Z,97558.88
2018-10-05T09:28:42.178Z,97565.30
2018-10-05T09:31:11.286Z,97538.00
2018-10-05T09:33:40.344Z,97553.59
2018-10-05T09:36:09.461Z,97550.27
2018-10-05T09:38:38.525Z,97550.33
2018-10-05T09:41:08.013Z,97540.17
2018-10-05T09:43:37.092Z,97538.56
2018-10-05T09:46:06.197Z,97537.81
2018-10-05T09:48:35.262Z,97535.27
2018-10-05T09:51:04.321Z,97530.19
2018-10-05T09:53:33.417Z,97522.59
2018-10-05T09:56:02.880Z,97520.92
2018-10-05T09:58:32.122Z,97516.73
2018-10-05T10:01:06.726Z,97509.55
2018-10-05T10:03:36.910Z,97498.52
2018-10-05T10:06:06.738Z,97508.32
2018-10-05T10:08:35.763Z,97500.74
2018-10-05T10:11:04.890Z,97499.51
2018-10-05T10:13:33.980Z,97494.03
2018-10-05T10:16:03.089Z,97483.84
2018-10-05T10:18:32.184Z,97481.73
2018-10-05T10:21:01.311Z,97475.38
2018-10-05T10:23:30.371Z,97470.70
2018-10-05T10:25:59.414Z,97466.45
2018-10-05T10:28:28.620Z,97466.89
2018-10-05T10:30:58.118Z,97454.55
2018-10-05T10:33:28.219Z,97458.38
2018-10-05T10:35:57.837Z,97456.24
2018-10-05T10:38:26.897Z,97455.42
2018-10-05T10:40:55.967Z,97458.39
2018-10-05T10:43:25.025Z,97450.73
2018-10-05T10:45:54.075Z,97455.87
2018-10-05T10:48:23.114Z,97452.02
2018-10-05T10:50:52.185Z,97444.77
2018-10-05T10:53:21.370Z,97444.75
2018-10-05T10:55:50.490Z,97444.76
2018-10-05T10:58:19.590Z,97436.20
2018-10-05T11:00:48.769Z,97436.19
2018-10-05T11:03:17.750Z,97431.05
2018-10-05T11:05:46.850Z,97428.48
2018-10-05T11:08:15.933Z,97423.38
2018-10-05T11:10:45.054Z,97418.23
2018-10-05T11:13:14.266Z,97413.95
2018-10-05T11:15:43.333Z,97400.73
2018-10-05T11:18:12.422Z,97403.63
2018-10-05T11:20:41.598Z,97400.16
2018-10-05T11:23:10.724Z,97400.96
2018-10-05T11:25:39.885Z,97396.25
2018-10-05T11:28:09.005Z,97391.55
2018-10-05T11:30:38.233Z,97389.84
2018-10-05T11:33:07.356Z,97383.84
2018-10-05T11:35:36.416Z,97376.98
2018-10-05T11:38:05.574Z,97378.17
2018-10-05T11:40:34.714Z,97377.24
2018-10-05T11:43:03.823Z,97372.50
2018-10-05T11:45:32.943Z,97370.72
2018-10-05T11:48:02.064Z,97361.28
2018-10-05T11:50:31.200Z,97362.95
2018-10-05T11:53:00.298Z,97346.64
2018-10-05T11:55:29.406Z,97346.56
2018-10-05T11:57:59.134Z,97349.13
2018-10-05T12:00:29.341Z,97339.72
2018-10-05T12:02:59.158Z,97344.80
2018-10-05T12:05:29.262Z,97337.08
2018-10-05T12:07:59.245Z,97337.84
2018-10-05T12:10:29.144Z,97330.95
2018-10-05T12:12:59.169Z,97324.47
2018-10-05T12:15:29.380Z,97323.94
2018-10-05T12:17:59.263Z,97322.91
2018-10-05T12:20:29.250Z,97309.61
2018-10-05T12:22:59.252Z,97321.05
2018-10-05T12:25:29.430Z,97318.52
2018-10-05T12:27:59.345Z,97305.69
2018-10-05T12:30:29.442Z,97311.30
2018-10-05T12:32:59.364Z,97307.42
2018-10-05T12:35:29.557Z,97309.07
2018-10-05T12:37:59.405Z,97294.48
2018-10-05T12:40:29.483Z,97283.33
2018-10-05T12:42:59.594Z,97290.08
2018-10-05T12:45:28.737Z,97283.63
2018-10-05T12:47:57.849Z,97283.12
2018-10-05T12:50:26.966Z,97273.19
2018-10-05T12:52:56.070Z,97271.80
2018-10-05T12:55:25.165Z,97270.00
2018-10-05T12:57:54.292Z,97260.92
2018-10-05T13:00:23.394Z,97254.00
2018-10-05T13:02:52.556Z,97244.55
2018-10-05T13:05:21.714Z,97251.80
2018-10-05T13:07:50.887Z,97244.92
2018-10-05T13:10:19.991Z,97249.97
2018-10-05T13:12:49.216Z,97248.59
2018-10-05T13:15:18.263Z,97257.59
2018-10-05T13:17:47.395Z,97245.62
2018-10-05T13:20:16.580Z,97251.56
2018-10-05T13:22:45.727Z,97240.41
2018-10-05T13:25:14.806Z,97239.45
2018-10-05T13:27:43.884Z,97241.04
2018-10-05T13:30:12.978Z,97244.28
2018-10-05T13:32:42.114Z,97251.93
2018-10-05T13:35:11.214Z,97245.87
2018-10-05T13:37:40.293Z,97243.20
2018-10-05T13:40:09.395Z,97241.31
2018-10-05T13:42:38.466Z,97236.36
2018-10-05T13:45:07.643Z,97232.44
2018-10-05T13:47:36.731Z,97215.43
2018-10-05T13:50:06.782Z,97223.90
2018-10-05T13:52:35.903Z,97222.11
2018-10-05T13:55:05.035Z,97215.22
2018-10-05T13:57:34.126Z,97208.64
2018-10-05T14:00:03.438Z,97200.84
2018-10-05T14:02:32.716Z,97199.42
2018-10-05T14:05:01.753Z,97195.91
2018-10-05T14:07:30.995Z,97194.08
2018-10-05T14:10:00.182Z,97186.20
2018-10-05T14:12:29.287Z,97181.33
2018-10-05T14:14:58.405Z,97182.45
2018-10-05T14:17:27.559Z,97179.67
2018-10-05T14:19:56.696Z,97178.66
2018-10-05T14:22:25.972Z,97176.27
2018-10-05T14:24:55.026Z,97169.14
2018-10-05T14:27:24.210Z,97159.54
2018-10-05T14:29:53.292Z,97156.14
2018-10-05T14:32:22.353Z,97154.50
2018-10-05T14:34:51.444Z,97146.12
2018-10-05T14:37:20.532Z,97146.45
2018-10-05T14:39:49.636Z,97152.68
2018-10-05T14:42:18.725Z,97151.17
2018-10-05T14:44:47.827Z,97152.96
2018-10-05T14:47:16.949Z,97147.06
2018-10-05T14:49:46.088Z,97122.95
2018-10-05T14:52:19.371Z,97136.83
2018-10-05T14:54:48.501Z,97140.65
2018-10-05T14:57:17.628Z,97137.38
2018-10-05T14:59:46.711Z,97135.28
2018-10-05T15:02:15.852Z,97134.00
2018-10-05T15:04:45.006Z,97132.41
2018-10-05T15:07:14.303Z,97129.91
2018-10-05T15:09:43.456Z,97127.98
2018-10-05T15:12:12.659Z,97129.50
2018-10-05T15:14:41.790Z,97128.31
2018-10-05T15:17:10.959Z,97125.08
2018-10-05T15:19:40.033Z,97133.63
2018-10-05T15:22:09.196Z,97128.42
2018-10-05T15:24:38.343Z,97129.55
2018-10-05T15:27:08.042Z,97120.16
2018-10-05T15:29:37.156Z,97120.67
2018-10-05T15:32:06.332Z,97121.09
2018-10-05T15:34:35.509Z,97121.44
2018-10-05T15:37:05.027Z,97115.61
2018-10-05T15:39:34.133Z,97117.47
2018-10-05T15:42:03.261Z,97115.48
2018-10-05T15:44:32.954Z,97116.89
2018-10-05T15:47:06.169Z,97115.43
2018-10-05T15:49:35.671Z,97112.19
2018-10-05T15:52:04.853Z,97116.22
2018-10-05T15:54:33.933Z,97112.04
2018-10-05T15:57:03.133Z,97104.50
2018-10-05T15:59:34.080Z,97100.03
2018-10-05T16:02:03.781Z,97104.41
2018-10-05T16:04:33.065Z,97104.22
2018-10-05T16:07:03.026Z,97104.84
2018-10-05T16:09:33.109Z,97108.42
2018-10-05T16:12:03.188Z,97112.85
2018-10-05T16:14:33.080Z,97107.80
2018-10-05T16:17:03.097Z,97106.98
2018-10-05T16:19:33.209Z,97107.95
2018-10-05T16:22:03.386Z,97102.17
2018-10-05T16:24:35.414Z,97103.59
2018-10-05T16:27:04.537Z,97101.64
2018-10-05T16:29:33.667Z,97102.61
2018-10-05T16:32:03.706Z,97091.64
2018-10-05T16:34:34.131Z,97092.62
2018-10-05T16:37:03.813Z,97093.63
2018-10-05T16:39:33.752Z,97096.34
2018-10-05T16:42:03.578Z,97089.64
2018-10-05T16:44:33.713Z,97088.01
2018-10-05T16:47:03.611Z,97080.38
2018-10-05T16:49:33.605Z,97077.94
2018-10-05T16:52:03.572Z,97077.20
2018-10-05T16:54:33.649Z,97070.50
2018-10-05T16:57:03.721Z,97078.68
2018-10-05T16:59:33.744Z,97080.91
2018-10-05T17:02:03.884Z,97080.13
2018-10-05T17:04:33.738Z,97075.09
2018-10-05T17:07:04.797Z,97073.47
2018-10-05T17:09:33.909Z,97071.84
2018-10-05T17:12:03.924Z,97076.66
2018-10-05T17:14:33.829Z,97078.42
2018-10-05T17:17:03.839Z,97069.55
2018-10-05T17:19:33.854Z,97071.30
2018-10-05T17:22:04.130Z,97056.90
2018-10-05T17:24:34.014Z,97063.77
2018-10-05T17:27:03.985Z,97065.11
2018-10-05T17:29:33.948Z,97067.22
2018-10-05T17:32:04.244Z,97059.18
2018-10-05T17:34:34.052Z,97060.48
2018-10-05T17:37:04.230Z,97061.36
2018-10-05T17:39:33.985Z,97059.30
2018-10-05T17:42:04.174Z,97064.03
2018-10-05T17:44:34.164Z,97067.05
2018-10-05T17:47:04.110Z,97068.39
2018-10-05T17:49:34.115Z,97066.30
2018-10-05T17:52:04.268Z,97071.89
2018-10-05T17:54:34.238Z,97071.94
2018-10-05T17:57:04.237Z,97074.52
2018-10-05T17:59:34.443Z,97083.06
2018-10-05T18:02:04.533Z,97076.27
2018-10-05T18:04:34.185Z,97076.28
2018-10-05T18:07:04.337Z,97073.75
2018-10-05T18:09:34.273Z,97075.04
2018-10-05T18:12:04.567Z,97063.56
2018-10-05T18:14:34.374Z,97072.92
2018-10-05T18:17:04.362Z,97062.30
2018-10-05T18:24:38.290Z,97065.28
2018-10-05T18:27:07.520Z,97071.22
2018-10-05T18:29:37.013Z,97064.42
2018-10-05T18:32:06.499Z,97067.39
2018-10-05T18:34:35.878Z,97063.55
2018-10-05T18:37:05.377Z,97066.94
2018-10-05T18:39:35.258Z,97069.49
2018-10-05T18:42:04.828Z,97073.28
2018-10-05T18:44:35.364Z,97070.33
2018-10-05T18:47:05.011Z,97066.52
2018-10-05T18:49:36.280Z,97063.52
2018-10-05T18:52:05.789Z,97066.07
2018-10-05T18:54:35.474Z,97063.46
2018-10-05T18:57:16.743Z,97063.47
2018-10-05T18:59:46.312Z,97064.30
2018-10-05T19:02:18.703Z,97063.44
2018-10-05T19:04:48.685Z,97065.13
2018-10-05T19:07:18.184Z,97065.09
2018-10-05T19:09:47.828Z,97067.20
2018-10-05T19:12:17.262Z,97059.11
2018-10-05T19:14:46.768Z,97051.48
2018-10-05T19:17:18.344Z,97049.76
2018-10-05T19:19:47.890Z,97054.02
2018-10-05T19:22:18.282Z,97047.21
2018-10-05T19:24:47.944Z,97045.48
2018-10-05T19:27:18.218Z,97052.27
2018-10-05T19:29:47.780Z,97059.89
2018-10-05T19:32:17.503Z,97052.22
2018-10-05T19:34:46.989Z,97045.41
2018-10-05T19:37:16.814Z,97051.75
2018-10-05T19:39:46.339Z,97048.31
2018-10-05T19:42:15.844Z,97048.30
2018-10-05T19:44:45.478Z,97048.25
2018-10-05T19:47:15.081Z,97042.70
2018-10-05T19:49:46.696Z,97043.92
2018-10-05T19:52:16.425Z,97045.13
2018-10-05T19:54:45.974Z,97046.80
2018-10-05T19:57:15.630Z,97042.11
2018-10-05T19:59:45.126Z,97050.13
2018-10-05T20:02:14.655Z,97050.89
2018-10-05T20:04:44.195Z,97050.84
2018-10-05T20:07:13.785Z,97054.19
2018-10-05T20:09:43.341Z,97059.23
2018-10-05T20:12:13.237Z,97059.64
2018-10-05T20:14:42.659Z,97058.36
2018-10-05T20:17:14.150Z,97051.54
2018-10-05T20:19:43.654Z,97054.48
2018-10-05T20:22:12.999Z,97046.84
2018-10-05T20:24:42.488Z,97048.06
2018-10-05T20:27:12.103Z,97048.91
2018-10-05T20:29:41.433Z,97049.23
2018-10-05T20:32:10.904Z,97048.34
2018-10-05T20:34:40.144Z,97052.97
2018-10-05T20:37:09.525Z,97049.95
2018-10-05T20:39:38.817Z,97046.97
2018-10-05T20:42:08.088Z,97051.58
2018-10-05T20:44:37.364Z,97056.16
2018-10-05T20:47:06.573Z,97054.41
2018-10-05T20:49:35.935Z,97051.41
2018-10-05T20:52:05.803Z,97055.17
2018-10-05T21:51:56.890Z,97031.30
2018-10-05T21:54:26.405Z,97039.31
2018-10-05T21:56:57.173Z,97043.10
2018-10-05T21:59:26.740Z,97041.02
2018-10-05T22:01:55.888Z,97040.96
2018-10-05T22:04:25.390Z,97033.36
2018-10-05T22:06:54.494Z,97039.29
2018-10-05T22:09:23.879Z,97035.05
2018-10-05T22:11:53.039Z,97033.31
2018-10-05T22:14:40.489Z,97031.17
2018-10-05T22:17:09.726Z,97030.75
2018-10-05T22:19:38.865Z,97029.00
2018-10-05T22:22:07.926Z,97032.67
2018-10-05T22:24:39.348Z,97036.79
2018-10-05T22:27:08.441Z,97038.75
2018-10-05T22:29:37.620Z,97038.63
2018-10-05T22:32:07.004Z,97027.58
2018-10-05T22:34:36.978Z,97026.56
2018-10-05T22:37:06.609Z,97028.18
2018-10-05T22:39:36.608Z,97026.45
2018-10-05T22:42:07.739Z,97020.44
2018-10-05T22:44:36.825Z,97017.77
2018-10-05T22:47:06.693Z,97010.88
2018-10-05T22:54:48.819Z,97014.55
2018-10-05T22:57:17.889Z,97004.84
2018-10-05T22:59:47.006Z,97009.86
2018-10-05T23:02:16.128Z,97006.50
2018-10-05T23:04:45.228Z,97004.76
2018-10-05T23:07:14.321Z,96998.80
2018-10-05T23:09:43.436Z,96996.24
2018-10-05T23:12:12.505Z,96991.59
2018-10-05T23:14:41.574Z,96986.91
2018-10-05T23:17:10.781Z,96987.30
2018-10-05T23:19:39.846Z,96992.77
2018-10-05T23:22:08.914Z,96996.07
2018-10-05T23:24:38.014Z,97000.29
2018-10-05T23:27:07.228Z,97002.02
2018-10-05T23:34:42.484Z,96995.30
2018-10-05T23:37:13.734Z,97001.20
2018-10-05T23:39:42.853Z,96999.52
2018-10-05T23:42:11.953Z,96994.89
2018-10-05T23:44:41.159Z,97002.48
2018-10-05T23:47:10.233Z,97011.33
2018-10-05T23:49:39.312Z,97008.38
2018-10-05T23:52:25.389Z,97008.38
2018-10-05T23:54:56.397Z,97005.42
2018-10-05T23:57:25.946Z,97010.48
2018-10-05T23:59:55.025Z,97006.23
